sensor_id;sensor_type;location;lat;lon;timestamp;temperature;humidity
67870;DHT22;54673;52.262;6.830;2023-05-10T00:01:21;21.90;57.50
67870;DHT22;54673;52.262;6.830;2023-05-10T00:03:46;21.90;57.40
67870;DHT22;54673;52.262;6.830;2023-05-10T00:06:12;21.90;57.50
67870;DHT22;54673;52.262;6.830;2023-05-10T00:08:37;21.90;57.50
67870;DHT22;54673;52.262;6.830;2023-05-10T00:11:03;21.90;57.40
67870;DHT22;54673;52.262;6.830;2023-05-10T00:13:28;21.90;57.20
67870;DHT22;54673;52.262;6.830;2023-05-10T00:15:54;21.90;57.20
67870;DHT22;54673;52.262;6.830;2023-05-10T00:18:20;21.90;57.20
67870;DHT22;54673;52.262;6.830;2023-05-10T00:20:45;21.90;57.30
67870;DHT22;54673;52.262;6.830;2023-05-10T00:23:11;21.80;57.10
67870;DHT22;54673;52.262;6.830;2023-05-10T00:25:37;21.90;57.10
67870;DHT22;54673;52.262;6.830;2023-05-10T00:28:03;21.90;57.20
67870;DHT22;54673;52.262;6.830;2023-05-10T00:30:28;21.90;57.20
67870;DHT22;54673;52.262;6.830;2023-05-10T00:32:54;21.80;57.20
67870;DHT22;54673;52.262;6.830;2023-05-10T00:35:19;21.90;57.30
67870;DHT22;54673;52.262;6.830;2023-05-10T00:37:45;21.80;57.10
67870;DHT22;54673;52.262;6.830;2023-05-10T00:40:11;21.90;57.20
67870;DHT22;54673;52.262;6.830;2023-05-10T00:42:36;21.90;57.20
67870;DHT22;54673;52.262;6.830;2023-05-10T00:45:02;21.80;57.20
67870;DHT22;54673;52.262;6.830;2023-05-10T00:47:28;21.80;57.10
67870;DHT22;54673;52.262;6.830;2023-05-10T00:49:54;21.80;57.20
67870;DHT22;54673;52.262;6.830;2023-05-10T00:52:21;21.80;57.20
67870;DHT22;54673;52.262;6.830;2023-05-10T00:54:50;21.80;57.10
67870;DHT22;54673;52.262;6.830;2023-05-10T00:57:16;21.80;57.10
67870;DHT22;54673;52.262;6.830;2023-05-10T00:59:42;21.80;57.10
67870;DHT22;54673;52.262;6.830;2023-05-10T01:02:07;21.80;57.10
67870;DHT22;54673;52.262;6.830;2023-05-10T01:04:33;21.80;57.10
67870;DHT22;54673;52.262;6.830;2023-05-10T01:06:58;21.80;58.00
67870;DHT22;54673;52.262;6.830;2023-05-10T01:09:24;21.80;57.10
67870;DHT22;54673;52.262;6.830;2023-05-10T01:11:51;21.80;57.10
67870;DHT22;54673;52.262;6.830;2023-05-10T01:14:18;21.80;57.10
67870;DHT22;54673;52.262;6.830;2023-05-10T01:16:45;21.80;57.10
67870;DHT22;54673;52.262;6.830;2023-05-10T01:19:26;21.80;57.10
67870;DHT22;54673;52.262;6.830;2023-05-10T01:27:55;21.80;57.10
67870;DHT22;54673;52.262;6.830;2023-05-10T01:33:30;21.80;57.10
67870;DHT22;54673;52.262;6.830;2023-05-10T01:36:13;21.80;57.10
67870;DHT22;54673;52.262;6.830;2023-05-10T01:38:53;21.80;57.10
67870;DHT22;54673;52.262;6.830;2023-05-10T01:46:27;21.80;57.00
67870;DHT22;54673;52.262;6.830;2023-05-10T01:48:57;21.80;57.10
67870;DHT22;54673;52.262;6.830;2023-05-10T01:51:26;21.70;57.00
67870;DHT22;54673;52.262;6.830;2023-05-10T01:53:58;21.80;57.00
67870;DHT22;54673;52.262;6.830;2023-05-10T01:56:26;21.70;57.00
67870;DHT22;54673;52.262;6.830;2023-05-10T01:58:54;21.70;57.00
67870;DHT22;54673;52.262;6.830;2023-05-10T02:01:21;21.70;57.00
67870;DHT22;54673;52.262;6.830;2023-05-10T02:03:48;21.70;56.90
67870;DHT22;54673;52.262;6.830;2023-05-10T02:06:16;21.70;56.90
67870;DHT22;54673;52.262;6.830;2023-05-10T02:08:44;21.70;56.90
67870;DHT22;54673;52.262;6.830;2023-05-10T02:11:13;21.70;56.90
67870;DHT22;54673;52.262;6.830;2023-05-10T02:13:39;21.70;56.90
67870;DHT22;54673;52.262;6.830;2023-05-10T02:16:06;21.70;56.90
67870;DHT22;54673;52.262;6.830;2023-05-10T02:18:34;21.70;56.90
67870;DHT22;54673;52.262;6.830;2023-05-10T02:21:01;21.70;56.80
67870;DHT22;54673;52.262;6.830;2023-05-10T02:23:28;22.40;57.20
67870;DHT22;54673;52.262;6.830;2023-05-10T02:25:55;21.70;56.80
67870;DHT22;54673;52.262;6.830;2023-05-10T02:28:23;21.70;56.80
67870;DHT22;54673;52.262;6.830;2023-05-10T02:30:49;21.70;56.80
67870;DHT22;54673;52.262;6.830;2023-05-10T02:33:15;21.70;56.70
67870;DHT22;54673;52.262;6.830;2023-05-10T02:35:41;21.70;56.70
67870;DHT22;54673;52.262;6.830;2023-05-10T02:38:07;21.70;56.80
67870;DHT22;54673;52.262;6.830;2023-05-10T02:40:35;21.70;56.70
67870;DHT22;54673;52.262;6.830;2023-05-10T02:43:02;21.70;57.60
67870;DHT22;54673;52.262;6.830;2023-05-10T02:45:31;21.70;56.70
67870;DHT22;54673;52.262;6.830;2023-05-10T02:47:58;21.70;56.70
67870;DHT22;54673;52.262;6.830;2023-05-10T02:50:27;21.70;56.70
67870;DHT22;54673;52.262;6.830;2023-05-10T02:52:56;21.70;56.70
67870;DHT22;54673;52.262;6.830;2023-05-10T02:55:35;21.70;56.70
67870;DHT22;54673;52.262;6.830;2023-05-10T02:58:02;21.70;56.70
67870;DHT22;54673;52.262;6.830;2023-05-10T03:00:28;21.70;56.70
67870;DHT22;54673;52.262;6.830;2023-05-10T03:02:54;21.70;56.70
67870;DHT22;54673;52.262;6.830;2023-05-10T03:05:20;21.70;56.70
67870;DHT22;54673;52.262;6.830;2023-05-10T03:07:46;21.70;56.60
67870;DHT22;54673;52.262;6.830;2023-05-10T03:10:12;21.70;56.60
67870;DHT22;54673;52.262;6.830;2023-05-10T03:20:46;21.70;56.60
67870;DHT22;54673;52.262;6.830;2023-05-10T03:25:50;21.70;56.60
67870;DHT22;54673;52.262;6.830;2023-05-10T03:28:17;21.70;56.50
67870;DHT22;54673;52.262;6.830;2023-05-10T03:30:43;21.70;56.50
67870;DHT22;54673;52.262;6.830;2023-05-10T03:33:10;21.70;56.40
67870;DHT22;54673;52.262;6.830;2023-05-10T03:35:36;21.60;56.40
67870;DHT22;54673;52.262;6.830;2023-05-10T03:38:01;21.60;56.40
67870;DHT22;54673;52.262;6.830;2023-05-10T03:40:27;21.60;56.40
67870;DHT22;54673;52.262;6.830;2023-05-10T03:42:58;21.70;56.40
67870;DHT22;54673;52.262;6.830;2023-05-10T03:45:23;21.60;56.30
67870;DHT22;54673;52.262;6.830;2023-05-10T03:47:49;21.60;56.30
67870;DHT22;54673;52.262;6.830;2023-05-10T03:50:15;21.60;56.40
67870;DHT22;54673;52.262;6.830;2023-05-10T03:52:40;21.60;56.40
67870;DHT22;54673;52.262;6.830;2023-05-10T03:55:06;21.60;56.30
67870;DHT22;54673;52.262;6.830;2023-05-10T03:57:33;21.60;56.30
67870;DHT22;54673;52.262;6.830;2023-05-10T03:59:58;21.60;56.40
67870;DHT22;54673;52.262;6.830;2023-05-10T04:02:24;21.60;56.30
67870;DHT22;54673;52.262;6.830;2023-05-10T04:04:49;21.60;56.30
67870;DHT22;54673;52.262;6.830;2023-05-10T04:07:15;21.60;56.40
67870;DHT22;54673;52.262;6.830;2023-05-10T04:09:41;21.60;56.30
67870;DHT22;54673;52.262;6.830;2023-05-10T04:12:06;21.60;56.30
67870;DHT22;54673;52.262;6.830;2023-05-10T04:14:32;21.60;56.30
67870;DHT22;54673;52.262;6.830;2023-05-10T04:16:58;21.60;56.30
67870;DHT22;54673;52.262;6.830;2023-05-10T04:19:23;21.60;56.20
67870;DHT22;54673;52.262;6.830;2023-05-10T04:21:49;21.60;56.20
67870;DHT22;54673;52.262;6.830;2023-05-10T04:24:14;21.60;56.20
67870;DHT22;54673;52.262;6.830;2023-05-10T04:26:40;22.20;56.50
67870;DHT22;54673;52.262;6.830;2023-05-10T04:29:06;21.60;56.20
67870;DHT22;54673;52.262;6.830;2023-05-10T04:31:31;21.60;56.20
67870;DHT22;54673;52.262;6.830;2023-05-10T04:33:57;21.60;56.20
67870;DHT22;54673;52.262;6.830;2023-05-10T04:36:23;21.60;56.10
67870;DHT22;54673;52.262;6.830;2023-05-10T04:38:48;21.60;56.10
67870;DHT22;54673;52.262;6.830;2023-05-10T04:41:14;21.60;56.10
67870;DHT22;54673;52.262;6.830;2023-05-10T04:43:40;21.60;56.10
67870;DHT22;54673;52.262;6.830;2023-05-10T04:46:05;21.60;56.10
67870;DHT22;54673;52.262;6.830;2023-05-10T04:48:32;21.60;56.10
67870;DHT22;54673;52.262;6.830;2023-05-10T04:50:58;21.60;56.00
67870;DHT22;54673;52.262;6.830;2023-05-10T04:53:23;21.60;56.10
67870;DHT22;54673;52.262;6.830;2023-05-10T04:55:49;21.60;56.00
67870;DHT22;54673;52.262;6.830;2023-05-10T04:58:14;21.60;56.00
67870;DHT22;54673;52.262;6.830;2023-05-10T05:00:40;21.60;56.00
67870;DHT22;54673;52.262;6.830;2023-05-10T05:03:06;21.60;56.00
67870;DHT22;54673;52.262;6.830;2023-05-10T05:05:31;21.60;56.00
67870;DHT22;54673;52.262;6.830;2023-05-10T05:07:57;21.60;56.00
67870;DHT22;54673;52.262;6.830;2023-05-10T05:10:22;21.60;56.00
67870;DHT22;54673;52.262;6.830;2023-05-10T05:12:48;21.60;56.00
67870;DHT22;54673;52.262;6.830;2023-05-10T05:15:13;21.60;56.00
67870;DHT22;54673;52.262;6.830;2023-05-10T05:17:40;21.60;56.00
67870;DHT22;54673;52.262;6.830;2023-05-10T05:20:06;21.60;56.00
67870;DHT22;54673;52.262;6.830;2023-05-10T05:22:32;21.60;56.00
67870;DHT22;54673;52.262;6.830;2023-05-10T05:24:58;21.60;55.90
67870;DHT22;54673;52.262;6.830;2023-05-10T05:27:24;21.50;55.90
67870;DHT22;54673;52.262;6.830;2023-05-10T05:29:56;21.50;55.90
67870;DHT22;54673;52.262;6.830;2023-05-10T05:32:22;21.50;55.90
67870;DHT22;54673;52.262;6.830;2023-05-10T05:34:48;21.50;55.90
67870;DHT22;54673;52.262;6.830;2023-05-10T05:37:19;21.60;56.00
67870;DHT22;54673;52.262;6.830;2023-05-10T05:39:46;21.60;55.90
67870;DHT22;54673;52.262;6.830;2023-05-10T05:42:12;21.60;56.00
67870;DHT22;54673;52.262;6.830;2023-05-10T05:44:39;21.50;55.80
67870;DHT22;54673;52.262;6.830;2023-05-10T05:47:05;21.60;55.90
67870;DHT22;54673;52.262;6.830;2023-05-10T05:49:31;21.60;55.90
67870;DHT22;54673;52.262;6.830;2023-05-10T05:52:03;21.50;55.90
67870;DHT22;54673;52.262;6.830;2023-05-10T05:54:30;21.50;55.90
67870;DHT22;54673;52.262;6.830;2023-05-10T05:56:59;21.50;55.90
67870;DHT22;54673;52.262;6.830;2023-05-10T05:59:25;21.50;56.70
67870;DHT22;54673;52.262;6.830;2023-05-10T06:01:51;21.50;55.90
67870;DHT22;54673;52.262;6.830;2023-05-10T06:04:17;21.50;55.90
67870;DHT22;54673;52.262;6.830;2023-05-10T06:06:43;21.50;55.80
67870;DHT22;54673;52.262;6.830;2023-05-10T06:09:09;21.50;55.80
67870;DHT22;54673;52.262;6.830;2023-05-10T06:11:35;21.50;55.70
67870;DHT22;54673;52.262;6.830;2023-05-10T06:14:01;21.50;55.80
67870;DHT22;54673;52.262;6.830;2023-05-10T06:16:27;21.50;55.70
67870;DHT22;54673;52.262;6.830;2023-05-10T06:18:53;21.50;55.70
67870;DHT22;54673;52.262;6.830;2023-05-10T06:21:19;21.50;55.80
67870;DHT22;54673;52.262;6.830;2023-05-10T06:23:44;21.50;55.70
67870;DHT22;54673;52.262;6.830;2023-05-10T06:26:10;21.50;55.70
67870;DHT22;54673;52.262;6.830;2023-05-10T06:28:36;21.50;55.70
67870;DHT22;54673;52.262;6.830;2023-05-10T06:31:03;21.50;56.50
67870;DHT22;54673;52.262;6.830;2023-05-10T06:33:29;21.50;55.60
67870;DHT22;54673;52.262;6.830;2023-05-10T06:35:55;21.50;55.60
67870;DHT22;54673;52.262;6.830;2023-05-10T06:38:21;21.50;55.70
67870;DHT22;54673;52.262;6.830;2023-05-10T06:40:46;21.50;55.60
67870;DHT22;54673;52.262;6.830;2023-05-10T06:43:12;21.50;55.60
67870;DHT22;54673;52.262;6.830;2023-05-10T06:45:38;21.50;55.60
67870;DHT22;54673;52.262;6.830;2023-05-10T06:48:03;21.50;55.70
67870;DHT22;54673;52.262;6.830;2023-05-10T06:50:29;21.50;55.60
67870;DHT22;54673;52.262;6.830;2023-05-10T06:52:54;21.50;55.60
67870;DHT22;54673;52.262;6.830;2023-05-10T06:55:21;21.50;55.60
67870;DHT22;54673;52.262;6.830;2023-05-10T06:57:46;21.50;55.60
67870;DHT22;54673;52.262;6.830;2023-05-10T07:00:13;21.50;55.50
67870;DHT22;54673;52.262;6.830;2023-05-10T07:02:39;21.50;55.60
67870;DHT22;54673;52.262;6.830;2023-05-10T07:05:05;21.50;55.50
67870;DHT22;54673;52.262;6.830;2023-05-10T07:07:31;21.50;55.50
67870;DHT22;54673;52.262;6.830;2023-05-10T07:09:57;21.50;55.50
67870;DHT22;54673;52.262;6.830;2023-05-10T07:12:23;21.50;55.60
67870;DHT22;54673;52.262;6.830;2023-05-10T07:14:49;21.50;55.50
67870;DHT22;54673;52.262;6.830;2023-05-10T07:17:14;21.50;55.50
67870;DHT22;54673;52.262;6.830;2023-05-10T07:19:40;21.50;55.50
67870;DHT22;54673;52.262;6.830;2023-05-10T07:22:06;21.50;55.60
67870;DHT22;54673;52.262;6.830;2023-05-10T07:24:32;21.50;55.50
67870;DHT22;54673;52.262;6.830;2023-05-10T07:26:58;21.50;55.60
67870;DHT22;54673;52.262;6.830;2023-05-10T07:29:23;21.50;55.50
67870;DHT22;54673;52.262;6.830;2023-05-10T07:31:49;21.50;55.50
67870;DHT22;54673;52.262;6.830;2023-05-10T07:34:14;21.50;55.50
67870;DHT22;54673;52.262;6.830;2023-05-10T07:36:40;21.50;55.40
67870;DHT22;54673;52.262;6.830;2023-05-10T07:39:06;21.50;55.40
67870;DHT22;54673;52.262;6.830;2023-05-10T07:41:31;21.50;55.40
67870;DHT22;54673;52.262;6.830;2023-05-10T07:43:58;21.50;55.50
67870;DHT22;54673;52.262;6.830;2023-05-10T07:46:23;21.50;55.40
67870;DHT22;54673;52.262;6.830;2023-05-10T07:48:49;21.50;55.40
67870;DHT22;54673;52.262;6.830;2023-05-10T07:51:14;21.50;55.40
67870;DHT22;54673;52.262;6.830;2023-05-10T07:53:40;21.50;55.40
67870;DHT22;54673;52.262;6.830;2023-05-10T07:56:25;21.50;55.50
67870;DHT22;54673;52.262;6.830;2023-05-10T07:58:53;21.50;55.40
67870;DHT22;54673;52.262;6.830;2023-05-10T08:01:19;21.50;55.50
67870;DHT22;54673;52.262;6.830;2023-05-10T08:03:45;21.50;55.90
67870;DHT22;54673;52.262;6.830;2023-05-10T08:06:10;21.50;55.40
67870;DHT22;54673;52.262;6.830;2023-05-10T08:08:36;21.50;55.50
67870;DHT22;54673;52.262;6.830;2023-05-10T08:11:02;21.50;55.40
67870;DHT22;54673;52.262;6.830;2023-05-10T08:13:27;21.50;55.40
67870;DHT22;54673;52.262;6.830;2023-05-10T08:15:53;21.50;55.40
67870;DHT22;54673;52.262;6.830;2023-05-10T08:18:19;21.50;55.40
67870;DHT22;54673;52.262;6.830;2023-05-10T08:20:44;21.50;55.40
67870;DHT22;54673;52.262;6.830;2023-05-10T08:23:12;21.50;55.50
67870;DHT22;54673;52.262;6.830;2023-05-10T08:25:38;21.60;55.40
67870;DHT22;54673;52.262;6.830;2023-05-10T08:28:04;21.50;55.40
67870;DHT22;54673;52.262;6.830;2023-05-10T08:30:29;21.50;55.40
67870;DHT22;54673;52.262;6.830;2023-05-10T08:32:55;21.50;55.40
67870;DHT22;54673;52.262;6.830;2023-05-10T08:35:21;21.50;55.40
67870;DHT22;54673;52.262;6.830;2023-05-10T08:37:46;21.50;55.40
67870;DHT22;54673;52.262;6.830;2023-05-10T08:40:12;21.50;55.40
67870;DHT22;54673;52.262;6.830;2023-05-10T08:42:40;21.50;55.40
67870;DHT22;54673;52.262;6.830;2023-05-10T08:45:10;21.50;55.50
67870;DHT22;54673;52.262;6.830;2023-05-10T08:47:37;21.50;55.40
67870;DHT22;54673;52.262;6.830;2023-05-10T08:50:04;21.60;55.40
67870;DHT22;54673;52.262;6.830;2023-05-10T08:52:32;21.60;55.40
67870;DHT22;54673;52.262;6.830;2023-05-10T08:54:58;21.60;55.40
67870;DHT22;54673;52.262;6.830;2023-05-10T08:57:24;21.50;55.30
67870;DHT22;54673;52.262;6.830;2023-05-10T08:59:50;21.60;55.40
67870;DHT22;54673;52.262;6.830;2023-05-10T09:02:16;21.60;55.50
67870;DHT22;54673;52.262;6.830;2023-05-10T09:04:43;21.50;55.40
67870;DHT22;54673;52.262;6.830;2023-05-10T09:07:09;21.60;55.60
67870;DHT22;54673;52.262;6.830;2023-05-10T09:09:36;21.60;55.70
67870;DHT22;54673;52.262;6.830;2023-05-10T09:12:02;21.50;55.60
67870;DHT22;54673;52.262;6.830;2023-05-10T09:14:29;21.50;55.70
67870;DHT22;54673;52.262;6.830;2023-05-10T09:16:54;21.50;55.60
67870;DHT22;54673;52.262;6.830;2023-05-10T09:19:20;21.50;55.70
67870;DHT22;54673;52.262;6.830;2023-05-10T09:21:46;21.50;55.70
67870;DHT22;54673;52.262;6.830;2023-05-10T09:24:12;21.50;55.60
67870;DHT22;54673;52.262;6.830;2023-05-10T09:26:48;21.50;55.60
67870;DHT22;54673;52.262;6.830;2023-05-10T09:29:14;21.50;55.60
67870;DHT22;54673;52.262;6.830;2023-05-10T09:31:52;21.60;55.70
67870;DHT22;54673;52.262;6.830;2023-05-10T09:34:29;21.60;55.60
67870;DHT22;54673;52.262;6.830;2023-05-10T09:36:57;21.60;55.70
67870;DHT22;54673;52.262;6.830;2023-05-10T09:39:33;21.60;55.60
67870;DHT22;54673;52.262;6.830;2023-05-10T09:42:09;21.50;55.60
67870;DHT22;54673;52.262;6.830;2023-05-10T09:44:35;21.50;55.60
67870;DHT22;54673;52.262;6.830;2023-05-10T09:47:02;21.50;55.70
67870;DHT22;54673;52.262;6.830;2023-05-10T09:49:28;21.60;55.70
67870;DHT22;54673;52.262;6.830;2023-05-10T09:52:07;21.50;55.70
67870;DHT22;54673;52.262;6.830;2023-05-10T09:54:33;21.50;55.70
67870;DHT22;54673;52.262;6.830;2023-05-10T09:56:59;21.50;55.60
67870;DHT22;54673;52.262;6.830;2023-05-10T09:59:26;21.50;55.60
67870;DHT22;54673;52.262;6.830;2023-05-10T10:02:01;21.50;55.60
67870;DHT22;54673;52.262;6.830;2023-05-10T10:04:27;21.50;55.70
67870;DHT22;54673;52.262;6.830;2023-05-10T10:07:04;21.50;55.60
67870;DHT22;54673;52.262;6.830;2023-05-10T10:09:30;21.60;55.70
67870;DHT22;54673;52.262;6.830;2023-05-10T10:11:56;21.50;55.60
67870;DHT22;54673;52.262;6.830;2023-05-10T10:14:23;21.60;55.60
67870;DHT22;54673;52.262;6.830;2023-05-10T10:16:52;21.60;55.60
67870;DHT22;54673;52.262;6.830;2023-05-10T10:19:20;21.50;55.60
67870;DHT22;54673;52.262;6.830;2023-05-10T10:21:50;21.60;55.60
67870;DHT22;54673;52.262;6.830;2023-05-10T10:24:16;21.50;55.60
67870;DHT22;54673;52.262;6.830;2023-05-10T10:26:42;21.50;55.60
67870;DHT22;54673;52.262;6.830;2023-05-10T10:29:32;21.50;55.60
67870;DHT22;54673;52.262;6.830;2023-05-10T10:35:08;21.50;55.60
67870;DHT22;54673;52.262;6.830;2023-05-10T10:37:47;21.50;55.60
67870;DHT22;54673;52.262;6.830;2023-05-10T10:40:29;21.50;55.60
67870;DHT22;54673;52.262;6.830;2023-05-10T10:42:56;21.50;55.60
67870;DHT22;54673;52.262;6.830;2023-05-10T10:45:23;21.50;55.60
67870;DHT22;54673;52.262;6.830;2023-05-10T10:47:49;21.60;55.60
67870;DHT22;54673;52.262;6.830;2023-05-10T10:50:18;21.60;55.50
67870;DHT22;54673;52.262;6.830;2023-05-10T10:52:44;21.60;55.60
67870;DHT22;54673;52.262;6.830;2023-05-10T11:07:54;21.60;55.50
67870;DHT22;54673;52.262;6.830;2023-05-10T11:10:24;21.60;55.50
67870;DHT22;54673;52.262;6.830;2023-05-10T11:13:00;21.60;55.50
67870;DHT22;54673;52.262;6.830;2023-05-10T11:15:34;21.60;55.50
67870;DHT22;54673;52.262;6.830;2023-05-10T11:18:00;21.60;55.50
67870;DHT22;54673;52.262;6.830;2023-05-10T11:20:41;21.60;55.50
67870;DHT22;54673;52.262;6.830;2023-05-10T11:23:14;21.60;55.50
67870;DHT22;54673;52.262;6.830;2023-05-10T11:25:44;21.60;55.50
67870;DHT22;54673;52.262;6.830;2023-05-10T11:28:14;21.60;55.50
67870;DHT22;54673;52.262;6.830;2023-05-10T11:30:40;21.60;55.50
67870;DHT22;54673;52.262;6.830;2023-05-10T11:33:07;21.60;55.50
67870;DHT22;54673;52.262;6.830;2023-05-10T11:35:40;21.60;55.50
67870;DHT22;54673;52.262;6.830;2023-05-10T11:38:10;21.70;55.60
67870;DHT22;54673;52.262;6.830;2023-05-10T11:40:37;21.60;55.50
67870;DHT22;54673;52.262;6.830;2023-05-10T11:43:04;21.60;55.50
67870;DHT22;54673;52.262;6.830;2023-05-10T11:45:32;21.60;55.50
67870;DHT22;54673;52.262;6.830;2023-05-10T11:47:59;21.60;56.50
67870;DHT22;54673;52.262;6.830;2023-05-10T11:50:25;21.70;55.70
67870;DHT22;54673;52.262;6.830;2023-05-10T11:52:55;21.60;55.60
67870;DHT22;54673;52.262;6.830;2023-05-10T11:55:21;21.60;55.50
67870;DHT22;54673;52.262;6.830;2023-05-10T11:57:51;21.70;55.60
67870;DHT22;54673;52.262;6.830;2023-05-10T12:00:16;21.70;55.60
67870;DHT22;54673;52.262;6.830;2023-05-10T12:02:42;21.70;55.50
67870;DHT22;54673;52.262;6.830;2023-05-10T12:05:08;21.60;55.60
67870;DHT22;54673;52.262;6.830;2023-05-10T12:07:34;21.70;55.50
67870;DHT22;54673;52.262;6.830;2023-05-10T12:10:12;21.70;55.60
67870;DHT22;54673;52.262;6.830;2023-05-10T12:12:46;21.70;55.60
67870;DHT22;54673;52.262;6.830;2023-05-10T12:15:21;21.70;55.50
67870;DHT22;54673;52.262;6.830;2023-05-10T12:17:47;21.70;55.50
67870;DHT22;54673;52.262;6.830;2023-05-10T12:20:23;21.70;55.50
67870;DHT22;54673;52.262;6.830;2023-05-10T12:22:50;21.60;55.50
67870;DHT22;54673;52.262;6.830;2023-05-10T12:25:17;21.70;55.60
67870;DHT22;54673;52.262;6.830;2023-05-10T12:27:53;21.70;55.70
67870;DHT22;54673;52.262;6.830;2023-05-10T12:30:25;21.70;55.60
67870;DHT22;54673;52.262;6.830;2023-05-10T12:32:51;21.60;55.60
67870;DHT22;54673;52.262;6.830;2023-05-10T12:35:17;21.70;55.60
67870;DHT22;54673;52.262;6.830;2023-05-10T12:37:46;21.70;55.70
67870;DHT22;54673;52.262;6.830;2023-05-10T12:40:11;21.70;55.70
67870;DHT22;54673;52.262;6.830;2023-05-10T12:42:38;21.70;55.60
67870;DHT22;54673;52.262;6.830;2023-05-10T12:45:04;21.70;56.10
67870;DHT22;54673;52.262;6.830;2023-05-10T12:47:31;21.70;55.70
67870;DHT22;54673;52.262;6.830;2023-05-10T12:49:57;21.70;55.70
67870;DHT22;54673;52.262;6.830;2023-05-10T12:52:24;21.70;56.60
67870;DHT22;54673;52.262;6.830;2023-05-10T12:54:50;21.60;55.70
67870;DHT22;54673;52.262;6.830;2023-05-10T12:57:15;21.60;55.70
67870;DHT22;54673;52.262;6.830;2023-05-10T12:59:41;21.70;55.70
67870;DHT22;54673;52.262;6.830;2023-05-10T13:02:08;21.70;55.80
67870;DHT22;54673;52.262;6.830;2023-05-10T13:04:33;21.70;55.70
67870;DHT22;54673;52.262;6.830;2023-05-10T13:06:59;21.70;55.80
67870;DHT22;54673;52.262;6.830;2023-05-10T13:09:26;21.70;55.70
67870;DHT22;54673;52.262;6.830;2023-05-10T13:11:52;21.70;55.80
67870;DHT22;54673;52.262;6.830;2023-05-10T13:14:19;21.70;55.80
67870;DHT22;54673;52.262;6.830;2023-05-10T13:16:46;21.70;55.80
67870;DHT22;54673;52.262;6.830;2023-05-10T13:19:12;21.70;55.80
67870;DHT22;54673;52.262;6.830;2023-05-10T13:21:38;21.70;55.80
67870;DHT22;54673;52.262;6.830;2023-05-10T13:24:06;21.70;55.80
67870;DHT22;54673;52.262;6.830;2023-05-10T13:26:32;21.70;55.70
67870;DHT22;54673;52.262;6.830;2023-05-10T13:28:57;21.70;55.70
67870;DHT22;54673;52.262;6.830;2023-05-10T13:31:23;21.70;55.80
67870;DHT22;54673;52.262;6.830;2023-05-10T13:33:48;21.70;55.80
67870;DHT22;54673;52.262;6.830;2023-05-10T13:36:14;21.70;55.80
67870;DHT22;54673;52.262;6.830;2023-05-10T13:38:40;21.70;56.70
67870;DHT22;54673;52.262;6.830;2023-05-10T13:41:05;21.70;55.80
67870;DHT22;54673;52.262;6.830;2023-05-10T13:43:31;21.70;55.90
67870;DHT22;54673;52.262;6.830;2023-05-10T13:45:56;21.70;55.80
67870;DHT22;54673;52.262;6.830;2023-05-10T13:48:22;21.70;55.90
67870;DHT22;54673;52.262;6.830;2023-05-10T13:50:47;21.70;55.90
67870;DHT22;54673;52.262;6.830;2023-05-10T13:53:13;21.70;55.80
67870;DHT22;54673;52.262;6.830;2023-05-10T13:55:39;21.70;55.80
67870;DHT22;54673;52.262;6.830;2023-05-10T13:58:05;21.70;55.80
67870;DHT22;54673;52.262;6.830;2023-05-10T14:00:30;21.80;55.90
67870;DHT22;54673;52.262;6.830;2023-05-10T14:02:56;21.80;55.90
67870;DHT22;54673;52.262;6.830;2023-05-10T14:05:22;21.70;55.80
67870;DHT22;54673;52.262;6.830;2023-05-10T14:07:49;21.70;55.80
67870;DHT22;54673;52.262;6.830;2023-05-10T14:10:15;21.70;55.90
67870;DHT22;54673;52.262;6.830;2023-05-10T14:12:41;21.70;56.00
67870;DHT22;54673;52.262;6.830;2023-05-10T14:15:07;21.80;56.00
67870;DHT22;54673;52.262;6.830;2023-05-10T14:17:32;21.80;56.00
67870;DHT22;54673;52.262;6.830;2023-05-10T14:19:58;21.70;56.10
67870;DHT22;54673;52.262;6.830;2023-05-10T14:22:24;21.70;56.10
67870;DHT22;54673;52.262;6.830;2023-05-10T14:24:49;21.70;56.10
67870;DHT22;54673;52.262;6.830;2023-05-10T14:27:15;21.80;56.10
67870;DHT22;54673;52.262;6.830;2023-05-10T14:29:41;21.80;56.10
67870;DHT22;54673;52.262;6.830;2023-05-10T14:32:07;21.80;56.10
67870;DHT22;54673;52.262;6.830;2023-05-10T14:34:33;21.70;56.00
67870;DHT22;54673;52.262;6.830;2023-05-10T14:36:58;21.80;56.10
67870;DHT22;54673;52.262;6.830;2023-05-10T14:39:24;21.80;56.10
67870;DHT22;54673;52.262;6.830;2023-05-10T14:41:50;21.80;56.10
67870;DHT22;54673;52.262;6.830;2023-05-10T14:44:17;21.70;56.00
67870;DHT22;54673;52.262;6.830;2023-05-10T14:46:43;21.80;56.00
67870;DHT22;54673;52.262;6.830;2023-05-10T14:49:08;21.80;56.00
67870;DHT22;54673;52.262;6.830;2023-05-10T14:51:34;21.80;55.90
67870;DHT22;54673;52.262;6.830;2023-05-10T14:53:59;21.80;55.90
67870;DHT22;54673;52.262;6.830;2023-05-10T14:56:25;21.80;56.00
67870;DHT22;54673;52.262;6.830;2023-05-10T14:58:51;21.70;56.00
67870;DHT22;54673;52.262;6.830;2023-05-10T15:01:17;21.80;56.00
67870;DHT22;54673;52.262;6.830;2023-05-10T15:03:42;21.80;56.00
67870;DHT22;54673;52.262;6.830;2023-05-10T15:06:08;21.80;56.00
67870;DHT22;54673;52.262;6.830;2023-05-10T15:08:34;21.70;56.00
67870;DHT22;54673;52.262;6.830;2023-05-10T15:10:59;21.70;56.10
67870;DHT22;54673;52.262;6.830;2023-05-10T15:13:25;21.80;56.10
67870;DHT22;54673;52.262;6.830;2023-05-10T15:15:50;21.70;56.10
67870;DHT22;54673;52.262;6.830;2023-05-10T15:18:16;21.80;56.20
67870;DHT22;54673;52.262;6.830;2023-05-10T15:20:41;21.70;56.20
67870;DHT22;54673;52.262;6.830;2023-05-10T15:23:07;21.70;56.10
67870;DHT22;54673;52.262;6.830;2023-05-10T15:25:33;21.80;56.10
67870;DHT22;54673;52.262;6.830;2023-05-10T15:28:03;21.80;56.20
67870;DHT22;54673;52.262;6.830;2023-05-10T15:30:28;21.70;56.10
67870;DHT22;54673;52.262;6.830;2023-05-10T15:32:54;21.70;56.30
67870;DHT22;54673;52.262;6.830;2023-05-10T15:35:20;21.70;56.20
67870;DHT22;54673;52.262;6.830;2023-05-10T15:37:47;21.70;56.20
67870;DHT22;54673;52.262;6.830;2023-05-10T15:40:13;21.70;56.20
67870;DHT22;54673;52.262;6.830;2023-05-10T15:42:39;21.80;56.20
67870;DHT22;54673;52.262;6.830;2023-05-10T15:45:05;21.80;56.20
67870;DHT22;54673;52.262;6.830;2023-05-10T15:47:31;21.70;56.20
67870;DHT22;54673;52.262;6.830;2023-05-10T15:49:57;21.70;56.10
67870;DHT22;54673;52.262;6.830;2023-05-10T15:52:22;21.70;56.20
67870;DHT22;54673;52.262;6.830;2023-05-10T15:54:49;21.80;56.30
67870;DHT22;54673;52.262;6.830;2023-05-10T15:57:14;21.80;56.30
67870;DHT22;54673;52.262;6.830;2023-05-10T15:59:40;21.80;56.30
67870;DHT22;54673;52.262;6.830;2023-05-10T16:02:08;21.80;56.30
67870;DHT22;54673;52.262;6.830;2023-05-10T16:04:35;22.30;56.70
67870;DHT22;54673;52.262;6.830;2023-05-10T16:07:01;21.70;56.30
67870;DHT22;54673;52.262;6.830;2023-05-10T16:09:27;21.80;56.30